Accueil
METAR-TAF:

METAR-TAF

Aéroports :

Aéroport d'Amsterdam-Schiphol

Amsterdam, Pays-Bas

latitude: 52-18N, longitude: 004-46E, altitude: -4 m

Observation

Le bulletin a été fait il y a 14 minutes, à 02:55 UTC
Vent 3 kt de est/nord-est
Température 10°C
Humidité 76%
Pression 1026 hPa
Visibilité 10 km ou plus
pas de nuages en-dessous de 1500 mètres et pas de cumulonimbus.

METAR: EHAM 080255Z 06003KT CAVOK 10/06 Q1026 NOSIG

Heure: 05:09 (03:09 UTC)

Prévision

Le bulletin a été fait il y a 4 heures et 11 minutes, à 22:58 UTC
Prévision valable du 08 à 00 UTC au 09 à 06 UTC
Vent 6 kt de est
Visibilité 10 km ou plus
pas de nuages en-dessous de 1500 mètres et pas de cumulonimbus.
Probabilité 30%
du 08 à 14 UTC au 08 à 18 UTC
Vent 7 kt de nord/nord-ouest

TAF: EHAM 072258Z 0800/0906 10006KT CAVOK PROB30 0814/0818 33007KT

Observations et prévisions météorologiques de plus de 4000 aéroports (messages METAR et TAF).

Les stations disponibles sont représentées par des disques jaunes et rouges sur la carte.

Passer la souris dessus pour voir le nom de la station.

Cliquer dessus pour voir les observations et prévisions météorologiques.

Pour changer de carte: cliquez sur les boutons verts avec une croix noire pour zoomer, sur le bouton vert avec un tiret pour effectuer un zoom arrière, ou sur les flèches vertes pour les cartes adjacentes.


METAR-TAF: